Terminal Aerodrome Forecast
Issued by NWS Cleveland, OH

Home | Current Version | Previous Version | Text Only | Print | Product List | Glossary Off
Versions: 1 2 3 4 5 6 7 8 9 10 11 12 13 14 15 16 17 18 19 20 21 22 23 24 25 26 27

000
FTUS41 KCLE 130800 AAA
TAFCLE
TAF AMD
KCLE 130854Z 1309/1412 18005KT P6SM OVC035
     FM131100 25008KT 5SM -SHRA BR BKN025 OVC060
     FM131400 27012G20KT P6SM OVC028
     FM132000 33010KT P6SM BKN035
     FM140100 01006KT P6SM VCSH OVC030
     FM140700 VRB03KT P6SM OVC030=

USA.gov is the U.S. government's official web portal to all federal, state and local government web resources and services.